Time;durP1;ratioP1;P1;durP2;ratioP2;P2;SDS_P1;SDS_P2;PMS_P1;PMS_P2;Temp;Humidity;BMP_temperature;BMP_pressure;BME280_temperature;BME280_humidity;BME280_pressure;Samples;Min_cycle;Max_cycle;Signal;HPM_P1;HPM_P2
2022/03/03 00:01:46;;;;;;;33.90;20.80;;;3.10;99.90;;;;;;5032480;28;20199;-77
2022/03/03 00:04:11;;;;;;;37.50;20.53;;;3.10;99.90;;;;;;5047187;28;20210;-77
2022/03/03 00:06:37;;;;;;;33.37;19.70;;;3.10;99.90;;;;;;5035101;28;20611;-74
2022/03/03 00:09:04;;;;;;;36.07;19.80;;;3.10;99.90;;;;;;5036105;28;20274;-76
2022/03/03 00:11:30;;;;;;;36.50;19.37;;;3.10;99.90;;;;;;5031613;28;20290;-76
2022/03/03 00:13:56;;;;;;;41.10;22.83;;;3.10;99.90;;;;;;5032447;28;20987;-78
2022/03/03 00:16:22;;;;;;;40.73;21.77;;;3.10;99.90;;;;;;5030085;28;20211;-74
2022/03/03 00:18:48;;;;;;;45.07;23.13;;;3.20;99.90;;;;;;5032609;28;20220;-76
2022/03/03 00:21:13;;;;;;;41.73;22.90;;;3.20;99.90;;;;;;5032358;28;20208;-78
2022/03/03 00:23:39;;;;;;;42.47;23.03;;;3.20;99.90;;;;;;5024476;28;20213;-75
2022/03/03 00:26:05;;;;;;;42.37;22.20;;;3.20;99.90;;;;;;5031230;28;20591;-75
2022/03/03 00:28:30;;;;;;;38.90;22.60;;;3.40;99.90;;;;;;5022472;28;20683;-77
2022/03/03 00:30:56;;;;;;;38.37;21.33;;;3.50;99.90;;;;;;5044986;28;20245;-75
2022/03/03 00:33:21;;;;;;;38.87;22.00;;;3.30;99.90;;;;;;5049364;28;20230;-76
2022/03/03 00:35:47;;;;;;;37.20;21.57;;;3.20;99.90;;;;;;5051740;28;20200;-74
2022/03/03 00:38:12;;;;;;;38.00;21.07;;;3.20;99.90;;;;;;5042238;28;20177;-75
2022/03/03 00:40:38;;;;;;;37.17;20.97;;;3.20;99.90;;;;;;5023970;28;20199;-73
2022/03/03 00:43:04;;;;;;;40.47;20.53;;;3.10;99.90;;;;;;5044141;28;20569;-74
2022/03/03 00:45:30;;;;;;;41.03;21.47;;;3.10;99.90;;;;;;5046831;28;20593;-83
2022/03/03 00:47:56;;;;;;;39.80;20.43;;;3.00;99.90;;;;;;5039365;28;20209;-74
2022/03/03 00:50:21;;;;;;;38.40;20.47;;;3.00;99.90;;;;;;5049364;28;20231;-79
2022/03/03 00:52:47;;;;;;;39.10;21.00;;;3.00;99.90;;;;;;5062915;28;20267;-81
2022/03/03 00:55:12;;;;;;;32.97;20.20;;;3.00;99.90;;;;;;5038144;28;20210;-77
2022/03/03 00:57:38;;;;;;;33.90;19.97;;;3.00;99.90;;;;;;5030645;28;20225;-78
2022/03/03 01:00:05;;;;;;;39.63;21.10;;;3.00;99.90;;;;;;5033358;28;20209;-79
2022/03/03 01:02:31;;;;;;;39.20;21.30;;;3.00;99.90;;;;;;5023705;28;20292;-75
2022/03/03 01:04:56;;;;;;;37.40;21.37;;;2.90;99.90;;;;;;5033493;28;20691;-80
2022/03/03 01:07:22;;;;;;;39.80;21.60;;;3.00;99.90;;;;;;5034571;28;20661;-80
2022/03/03 01:09:47;;;;;;;37.73;19.83;;;3.00;99.90;;;;;;5049253;28;20636;-79
2022/03/03 01:12:13;;;;;;;35.43;20.77;;;3.00;99.90;;;;;;5051244;28;20206;-76
2022/03/03 01:14:38;;;;;;;41.27;22.57;;;3.10;99.90;;;;;;5050665;28;20211;-78
2022/03/03 01:17:04;;;;;;;38.90;21.57;;;3.10;99.90;;;;;;5050767;28;20652;-76
2022/03/03 01:19:30;;;;;;;37.47;20.83;;;3.10;99.90;;;;;;5049004;28;20235;-76
2022/03/03 01:21:56;;;;;;;39.23;22.23;;;3.10;99.90;;;;;;5030565;28;20692;-77
2022/03/03 01:24:21;;;;;;;36.30;20.20;;;3.10;99.90;;;;;;5030574;28;20208;-76
2022/03/03 01:26:47;;;;;;;37.77;20.23;;;3.10;99.90;;;;;;5034881;28;20722;-81
2022/03/03 01:29:12;;;;;;;36.97;20.77;;;3.10;99.90;;;;;;5048834;28;20179;-77
2022/03/03 01:31:38;;;;;;;38.63;21.00;;;3.10;99.90;;;;;;5023440;28;20200;-76
2022/03/03 01:34:03;;;;;;;37.87;20.57;;;3.10;99.90;;;;;;5028977;28;20220;-77
2022/03/03 01:36:29;;;;;;;34.90;20.67;;;3.10;99.90;;;;;;5032560;28;20226;-77
2022/03/03 01:38:54;;;;;;;37.10;21.17;;;3.10;99.90;;;;;;5029738;28;20581;-77
2022/03/03 01:41:21;;;;;;;37.60;20.23;;;3.10;99.90;;;;;;5027964;28;20203;-78
2022/03/03 01:43:46;;;;;;;37.93;20.50;;;3.20;99.90;;;;;;5039592;28;20182;-77
2022/03/03 01:46:12;;;;;;;35.53;19.73;;;3.10;99.90;;;;;;5026745;28;20203;-77
2022/03/03 01:48:37;;;;;;;40.00;19.67;;;3.10;99.90;;;;;;5021709;28;20727;-77
2022/03/03 01:51:03;;;;;;;35.57;20.20;;;3.10;99.90;;;;;;5032187;28;20214;-76
2022/03/03 01:53:28;;;;;;;29.87;19.83;;;3.00;99.90;;;;;;5030106;28;20703;-76
2022/03/03 01:55:55;;;;;;;32.83;18.40;;;3.00;99.90;;;;;;5025996;28;20187;-77
2022/03/03 01:58:21;;;;;;;38.23;20.53;;;2.90;99.90;;;;;;5029397;28;20216;-77
2022/03/03 02:00:50;;;;;;;31.23;19.23;;;2.90;99.90;;;;;;5024585;28;20349;-77
2022/03/03 02:03:15;;;;;;;40.10;19.73;;;2.80;99.90;;;;;;5030278;28;20668;-77
2022/03/03 02:05:41;;;;;;;34.53;19.67;;;2.90;99.90;;;;;;5023432;28;20212;-77
2022/03/03 02:08:06;;;;;;;33.17;20.27;;;2.70;99.90;;;;;;5036835;28;20179;-77
2022/03/03 02:10:32;;;;;;;36.07;20.30;;;2.60;99.90;;;;;;5030627;28;20219;-76
2022/03/03 02:12:58;;;;;;;31.53;19.07;;;2.60;99.90;;;;;;5030121;28;20215;-76
2022/03/03 02:15:23;;;;;;;32.63;19.03;;;2.60;99.90;;;;;;5021939;28;20574;-76
2022/03/03 02:17:49;;;;;;;37.43;20.17;;;2.50;99.90;;;;;;5023781;28;20208;-77
2022/03/03 02:20:23;;;;;;;35.93;19.27;;;2.60;99.90;;;;;;5029688;28;20194;-77
2022/03/03 02:22:50;;;;;;;37.57;19.90;;;2.60;99.90;;;;;;5027566;28;20668;-76
2022/03/03 02:25:16;;;;;;;33.30;19.67;;;2.70;99.90;;;;;;5033850;28;20214;-77
2022/03/03 02:27:43;;;;;;;39.50;20.47;;;2.70;99.90;;;;;;5033295;28;20692;-76
2022/03/03 02:30:09;;;;;;;35.50;19.27;;;2.70;99.90;;;;;;5030101;28;20235;-76
2022/03/03 02:32:35;;;;;;;35.17;18.83;;;2.80;99.90;;;;;;5033421;28;20204;-76
2022/03/03 02:35:00;;;;;;;36.77;20.00;;;2.60;99.90;;;;;;5029797;28;20182;-76
2022/03/03 02:37:37;;;;;;;34.13;19.37;;;2.70;99.90;;;;;;5042434;28;20238;-78
2022/03/03 02:40:06;;;;;;;32.13;18.60;;;2.70;99.90;;;;;;5052826;28;20241;-76
2022/03/03 02:42:32;;;;;;;35.13;18.97;;;2.70;99.90;;;;;;5044830;28;20211;-76
2022/03/03 02:44:57;;;;;;;31.07;18.07;;;2.70;99.90;;;;;;5052156;28;20202;-77
2022/03/03 02:47:23;;;;;;;35.10;19.77;;;2.60;99.90;;;;;;5044590;28;20212;-76
2022/03/03 02:49:48;;;;;;;30.80;19.33;;;2.60;99.90;;;;;;5027215;28;20190;-76
2022/03/03 02:52:14;;;;;;;33.80;19.33;;;2.50;99.90;;;;;;5032072;28;20205;-76
2022/03/03 02:54:40;;;;;;;33.03;18.73;;;2.50;99.90;;;;;;5033102;28;20223;-76
2022/03/03 02:59:51;;;;;;;32.67;18.23;;;2.40;99.90;;;;;;5032511;28;20223;-76
2022/03/03 03:02:16;;;;;;;36.63;18.23;;;2.40;99.90;;;;;;5033342;28;20192;-76
2022/03/03 03:04:42;;;;;;;33.57;19.70;;;2.40;99.90;;;;;;5026910;28;20180;-77
2022/03/03 03:07:07;;;;;;;31.87;19.13;;;2.40;99.90;;;;;;5033059;28;20196;-77
2022/03/03 03:09:33;;;;;;;30.67;17.77;;;2.40;99.90;;;;;;5034069;28;20223;-76
2022/03/03 03:11:59;;;;;;;33.47;18.80;;;2.40;99.90;;;;;;5052995;28;20258;-76
2022/03/03 03:14:24;;;;;;;37.40;19.97;;;2.30;99.90;;;;;;5052744;28;20230;-76
2022/03/03 03:16:50;;;;;;;31.53;18.33;;;2.40;99.90;;;;;;5053453;28;20651;-76
2022/03/03 03:19:15;;;;;;;35.63;18.70;;;2.40;99.90;;;;;;5051922;28;20210;-76
2022/03/03 03:21:41;;;;;;;34.77;19.17;;;2.40;99.90;;;;;;5052496;28;20225;-76
2022/03/03 03:24:06;;;;;;;34.87;20.93;;;2.40;99.90;;;;;;5052781;28;20290;-77
2022/03/03 03:26:32;;;;;;;34.40;19.77;;;2.40;99.90;;;;;;5052630;28;20230;-77
2022/03/03 03:28:57;;;;;;;33.90;19.47;;;2.40;99.90;;;;;;5052265;28;20179;-77
2022/03/03 03:31:23;;;;;;;31.40;19.87;;;2.40;99.90;;;;;;5051387;28;20270;-77
2022/03/03 03:33:48;;;;;;;36.90;19.80;;;2.50;99.90;;;;;;5050443;28;20239;-77
2022/03/03 03:36:14;;;;;;;40.00;19.93;;;2.30;99.90;;;;;;5051425;28;20606;-77
2022/03/03 03:38:39;;;;;;;35.77;23.83;;;2.20;99.90;;;;;;5038690;28;20540;-77
2022/03/03 03:41:05;;;;;;;31.77;19.40;;;2.20;99.90;;;;;;5032686;28;20200;-77
2022/03/03 03:43:31;;;;;;;30.30;19.43;;;2.10;99.90;;;;;;5032714;28;20188;-77
2022/03/03 03:45:57;;;;;;;35.93;19.20;;;2.10;99.90;;;;;;5027864;28;20218;-77
2022/03/03 03:48:22;;;;;;;34.67;19.33;;;2.00;99.90;;;;;;5031357;28;20591;-77
2022/03/03 03:50:48;;;;;;;30.73;19.60;;;2.00;99.90;;;;;;5020048;28;20223;-77
2022/03/03 03:53:13;;;;;;;34.60;18.70;;;2.00;99.90;;;;;;5036186;28;20209;-77
2022/03/03 03:55:39;;;;;;;33.97;19.00;;;1.90;99.90;;;;;;5034582;28;20607;-77
2022/03/03 03:58:04;;;;;;;32.60;19.07;;;1.90;99.90;;;;;;5044664;28;20233;-77
2022/03/03 04:00:30;;;;;;;36.87;20.03;;;1.90;99.90;;;;;;5044788;28;20209;-77
2022/03/03 04:02:56;;;;;;;34.30;19.00;;;1.90;99.90;;;;;;5038766;28;20230;-77
2022/03/03 04:05:22;;;;;;;29.93;18.47;;;1.90;99.90;;;;;;5041271;28;20731;-77
2022/03/03 04:07:47;;;;;;;37.33;19.63;;;1.90;99.90;;;;;;5044184;28;20261;-76
2022/03/03 04:10:13;;;;;;;30.77;19.40;;;1.90;99.90;;;;;;5043603;28;20237;-78
2022/03/03 04:12:39;;;;;;;35.93;18.43;;;1.90;99.90;;;;;;5041243;28;20209;-78
2022/03/03 04:15:06;;;;;;;33.80;18.87;;;1.90;99.90;;;;;;5036805;28;20300;-77
2022/03/03 04:17:32;;;;;;;34.73;20.27;;;1.90;99.90;;;;;;5033551;28;20257;-76
2022/03/03 04:19:58;;;;;;;29.47;18.47;;;1.90;99.90;;;;;;5042365;28;20194;-77
2022/03/03 04:22:23;;;;;;;33.87;18.43;;;1.80;99.90;;;;;;5037151;28;20206;-77
2022/03/03 04:24:49;;;;;;;30.03;17.67;;;1.80;99.90;;;;;;5043364;28;20199;-77
2022/03/03 04:27:15;;;;;;;32.97;18.83;;;1.80;99.90;;;;;;5043050;28;20228;-77
2022/03/03 04:29:40;;;;;;;31.73;17.80;;;1.90;99.90;;;;;;5039488;28;20766;-76
2022/03/03 04:32:06;;;;;;;34.77;18.77;;;1.90;99.90;;;;;;5039660;28;20174;-76
2022/03/03 04:34:32;;;;;;;31.03;18.37;;;1.90;99.90;;;;;;5041461;28;20632;-76
2022/03/03 04:36:57;;;;;;;34.10;19.50;;;1.90;99.90;;;;;;5043022;28;20217;-76
2022/03/03 04:39:23;;;;;;;35.93;19.53;;;1.70;99.90;;;;;;5042331;28;20587;-77
2022/03/03 04:41:49;;;;;;;34.97;19.10;;;1.60;99.90;;;;;;5043790;28;20290;-77
2022/03/03 04:44:14;;;;;;;32.10;18.10;;;1.60;99.90;;;;;;5040718;28;20202;-77
2022/03/03 04:46:39;;;;;;;34.00;18.57;;;1.60;99.90;;;;;;5040511;28;20183;-76
2022/03/03 04:49:05;;;;;;;31.23;18.33;;;1.40;99.90;;;;;;5034770;28;20855;-76
2022/03/03 04:51:31;;;;;;;31.03;18.50;;;1.40;99.90;;;;;;5031914;28;20295;-77
2022/03/03 04:53:57;;;;;;;34.63;20.50;;;1.30;99.90;;;;;;5038934;28;20305;-77
2022/03/03 04:56:23;;;;;;;33.50;18.93;;;1.20;99.90;;;;;;5038460;28;20216;-76
2022/03/03 04:58:49;;;;;;;32.93;19.20;;;1.20;99.90;;;;;;5042420;28;20224;-76
2022/03/03 05:01:16;;;;;;;31.47;19.30;;;1.20;99.90;;;;;;5042780;28;20289;-76
2022/03/03 05:03:41;;;;;;;34.03;18.37;;;1.10;99.90;;;;;;5039232;28;20696;-76
2022/03/03 05:06:07;;;;;;;31.43;18.70;;;1.10;99.90;;;;;;5039090;28;20203;-76
2022/03/03 05:08:32;;;;;;;33.07;19.73;;;1.00;99.90;;;;;;5039472;28;20210;-76
2022/03/03 05:10:57;;;;;;;38.70;19.30;;;1.00;99.90;;;;;;5042724;28;20214;-76
2022/03/03 05:13:23;;;;;;;39.33;18.70;;;1.00;99.90;;;;;;5041728;28;20250;-75
2022/03/03 05:15:48;;;;;;;27.83;17.70;;;1.10;99.90;;;;;;5032991;28;20287;-77
2022/03/03 05:18:14;;;;;;;31.50;18.33;;;1.00;99.90;;;;;;5036787;28;20677;-76
2022/03/03 05:20:39;;;;;;;33.33;18.73;;;0.90;99.90;;;;;;5041170;28;20230;-77
2022/03/03 05:23:05;;;;;;;33.40;18.20;;;0.90;99.90;;;;;;5043308;28;20254;-77
2022/03/03 05:25:31;;;;;;;31.87;19.27;;;0.90;99.90;;;;;;5032554;28;20311;-77
2022/03/03 05:28:00;;;;;;;36.87;20.07;;;0.90;99.90;;;;;;5037149;28;20338;-76
2022/03/03 05:30:25;;;;;;;31.40;17.80;;;0.90;99.90;;;;;;5039099;28;20225;-76
2022/03/03 05:32:51;;;;;;;37.43;19.40;;;0.90;99.90;;;;;;5036315;28;20708;-76
2022/03/03 05:35:18;;;;;;;30.97;18.93;;;0.90;99.90;;;;;;5040853;28;20174;-77
2022/03/03 05:37:45;;;;;;;32.27;18.90;;;0.90;99.90;;;;;;5032238;28;20212;-76
2022/03/03 05:40:11;;;;;;;35.40;18.63;;;0.90;99.90;;;;;;5038273;28;20266;-76
2022/03/03 05:42:37;;;;;;;29.10;17.33;;;0.90;99.90;;;;;;5040530;28;20645;-76
2022/03/03 05:45:03;;;;;;;28.70;18.07;;;0.90;99.90;;;;;;5042243;28;20290;-76
2022/03/03 05:47:29;;;;;;;34.37;18.27;;;0.80;99.90;;;;;;5040717;28;20286;-76
2022/03/03 05:49:56;;;;;;;33.43;18.10;;;0.90;99.90;;;;;;5033088;28;20199;-76
2022/03/03 05:52:21;;;;;;;35.17;20.33;;;1.00;99.90;;;;;;5039522;28;20213;-76
2022/03/03 05:54:47;;;;;;;31.43;20.43;;;1.00;99.90;;;;;;5041915;28;20232;-77
2022/03/03 05:57:17;;;;;;;33.87;19.57;;;1.00;99.90;;;;;;5043964;28;20208;-77
2022/03/03 05:59:43;;;;;;;38.27;21.20;;;1.10;99.90;;;;;;5039938;28;20293;-77
2022/03/03 06:02:09;;;;;;;37.70;20.43;;;1.10;99.90;;;;;;5034300;28;20652;-76
2022/03/03 06:04:38;;;;;;;39.70;19.70;;;1.10;99.90;;;;;;5034671;28;20183;-76
2022/03/03 06:07:06;;;;;;;39.43;20.17;;;1.10;99.90;;;;;;5030258;28;20219;-76
2022/03/03 06:09:34;;;;;;;31.43;18.47;;;1.20;99.90;;;;;;5024672;28;20211;-76
2022/03/03 06:12:13;;;;;;;32.67;19.07;;;1.30;99.90;;;;;;5033941;28;20793;-76
2022/03/03 06:14:43;;;;;;;34.80;19.20;;;1.40;99.90;;;;;;5052972;28;20223;-76
2022/03/03 06:17:09;;;;;;;38.77;20.57;;;1.40;99.90;;;;;;5050671;28;20255;-77
2022/03/03 06:19:40;;;;;;;37.97;20.70;;;1.30;99.90;;;;;;5054334;28;20221;-77
2022/03/03 06:22:10;;;;;;;38.27;20.27;;;1.40;99.90;;;;;;5052227;28;20221;-77
2022/03/03 06:24:36;;;;;;;37.73;20.43;;;3.00;99.90;;;;;;5055671;28;20212;-77
2022/03/03 06:27:02;;;;;;;40.80;21.03;;;4.40;99.90;;;;;;5051437;28;20211;-76
2022/03/03 06:29:28;;;;;;;33.80;18.93;;;5.40;99.90;;;;;;5052975;28;20221;-76
2022/03/03 06:31:53;;;;;;;36.93;19.43;;;6.10;99.90;;;;;;5030121;28;20274;-77
2022/03/03 06:34:20;;;;;;;33.53;19.13;;;6.50;99.90;;;;;;5034214;28;20221;-77
2022/03/03 06:36:49;;;;;;;32.57;18.43;;;6.50;99.90;;;;;;5034044;28;20756;-76
2022/03/03 06:39:15;;;;;;;32.30;18.27;;;7.50;99.90;;;;;;5030647;28;20689;-77
2022/03/03 06:41:40;;;;;;;33.70;19.03;;;8.00;99.90;;;;;;5026198;28;20298;-76
2022/03/03 06:44:07;;;;;;;31.27;18.50;;;8.70;99.90;;;;;;5032220;28;20173;-76
2022/03/03 06:46:32;;;;;;;30.27;18.37;;;9.30;99.90;;;;;;5051996;28;20262;-76
2022/03/03 06:48:58;;;;;;;31.20;19.20;;;9.70;99.90;;;;;;5052549;28;20310;-76
2022/03/03 06:51:28;;;;;;;34.33;20.03;;;9.90;99.90;;;;;;5053123;28;20212;-77
2022/03/03 06:53:58;;;;;;;30.50;18.47;;;10.50;99.90;;;;;;5048066;28;20215;-76
2022/03/03 06:56:25;;;;;;;31.17;20.10;;;10.80;99.90;;;;;;5052078;28;20227;-76
2022/03/03 06:58:54;;;;;;;29.53;21.03;;;11.00;99.90;;;;;;5053219;28;20242;-78
2022/03/03 07:01:21;;;;;;;32.97;21.40;;;11.10;99.90;;;;;;5041643;28;20227;-78
2022/03/03 07:03:48;;;;;;;37.87;22.33;;;10.90;99.90;;;;;;5028502;28;20295;-78
2022/03/03 07:06:14;;;;;;;37.77;22.30;;;10.60;99.90;;;;;;5039042;28;20216;-78
2022/03/03 07:08:41;;;;;;;33.23;21.20;;;10.40;99.90;;;;;;5043902;28;20213;-78
2022/03/03 07:11:07;;;;;;;33.53;21.40;;;9.90;99.90;;;;;;5051641;28;20231;-78
2022/03/03 07:13:32;;;;;;;39.93;24.27;;;7.90;99.90;;;;;;5055828;28;20711;-77
2022/03/03 07:16:41;;;;;;;39.73;26.63;;;6.80;99.90;;;;;;5050721;28;20199;-78
2022/03/03 07:19:28;;;;;;;43.60;25.93;;;5.00;99.90;;;;;;5040598;28;20231;-77
2022/03/03 07:22:02;;;;;;;48.77;25.37;;;3.40;99.90;;;;;;5053504;28;20207;-79
2022/03/03 07:24:33;;;;;;;45.17;26.37;;;2.90;99.90;;;;;;5054305;28;20559;-78
2022/03/03 07:27:04;;;;;;;52.77;26.23;;;2.50;99.90;;;;;;5052376;28;20287;-78
2022/03/03 07:29:32;;;;;;;55.13;28.17;;;2.20;99.90;;;;;;5054054;28;20586;-78
2022/03/03 07:32:03;;;;;;;53.03;27.67;;;2.20;99.90;;;;;;5034802;28;20574;-78
2022/03/03 07:34:34;;;;;;;54.97;27.47;;;2.00;99.90;;;;;;5033533;28;20634;-78
2022/03/03 07:37:10;;;;;;;53.77;28.50;;;1.50;99.90;;;;;;5042970;28;20211;-78
2022/03/03 07:39:43;;;;;;;56.17;29.77;;;1.70;99.90;;;;;;5032201;28;20217;-78
2022/03/03 07:42:17;;;;;;;77.83;38.90;;;1.70;99.90;;;;;;5033434;28;20212;-78
2022/03/03 07:44:44;;;;;;;68.70;32.57;;;1.70;99.90;;;;;;5025099;28;20239;-77
2022/03/03 07:47:10;;;;;;;61.37;30.77;;;1.60;99.90;;;;;;5032589;28;20192;-79
2022/03/03 07:49:35;;;;;;;58.07;29.20;;;1.60;99.90;;;;;;5034861;28;20194;-78
2022/03/03 07:52:05;;;;;;;58.93;30.67;;;1.70;99.90;;;;;;5036913;28;20213;-79
2022/03/03 07:54:32;;;;;;;61.43;30.60;;;1.70;99.90;;;;;;5036898;28;20226;-79
2022/03/03 07:56:59;;;;;;;61.80;29.13;;;1.40;99.90;;;;;;5032295;28;20293;-78
2022/03/03 07:59:36;;;;;;;60.33;29.20;;;1.50;99.90;;;;;;5034270;28;20222;-78
2022/03/03 08:02:04;;;;;;;57.30;27.80;;;1.60;99.90;;;;;;5032385;28;20189;-78
2022/03/03 08:04:32;;;;;;;61.53;29.03;;;1.70;99.90;;;;;;5023394;28;20260;-78
2022/03/03 08:07:08;;;;;;;56.63;28.83;;;1.70;99.90;;;;;;5028958;28;20215;-77
2022/03/03 08:09:36;;;;;;;53.07;27.47;;;1.70;99.90;;;;;;5032498;28;20211;-77
2022/03/03 08:12:04;;;;;;;56.43;28.03;;;1.50;99.90;;;;;;5032942;28;20222;-78
2022/03/03 08:14:30;;;;;;;51.93;26.07;;;1.60;99.90;;;;;;5034332;28;20248;-78
2022/03/03 08:16:56;;;;;;;53.47;26.47;;;1.70;99.90;;;;;;5032296;28;20598;-78
2022/03/03 08:19:22;;;;;;;55.23;26.73;;;1.80;99.90;;;;;;5032178;28;20254;-78
2022/03/03 08:21:49;;;;;;;55.93;26.63;;;1.80;99.90;;;;;;5027283;28;20228;-78
2022/03/03 08:24:14;;;;;;;57.70;26.70;;;1.70;99.90;;;;;;5033455;28;20210;-79
2022/03/03 08:26:42;;;;;;;53.13;26.30;;;1.80;99.90;;;;;;5037510;28;20205;-78
2022/03/03 08:29:08;;;;;;;47.53;24.80;;;1.70;99.90;;;;;;5035052;28;20648;-79
2022/03/03 08:31:45;;;;;;;48.17;24.43;;;1.90;99.90;;;;;;5027204;28;20236;-79
2022/03/03 08:34:28;;;;;;;51.30;25.63;;;2.10;99.90;;;;;;5035310;28;20217;-78
2022/03/03 08:37:00;;;;;;;46.63;23.57;;;1.90;99.90;;;;;;5035367;28;20771;-78
2022/03/03 08:39:28;;;;;;;44.53;23.20;;;1.80;99.90;;;;;;5031601;28;20219;-78
2022/03/03 08:41:59;;;;;;;48.83;26.13;;;1.80;99.90;;;;;;5035256;28;20197;-78
2022/03/03 08:44:35;;;;;;;47.03;23.97;;;1.70;99.90;;;;;;5033136;28;20652;-78
2022/03/03 08:47:03;;;;;;;47.77;24.23;;;1.50;99.90;;;;;;5027284;28;20166;-75
2022/03/03 08:49:32;;;;;;;45.23;24.63;;;1.50;99.90;;;;;;5031797;28;20214;-76
2022/03/03 08:51:59;;;;;;;39.40;22.60;;;1.70;99.90;;;;;;5038948;28;20277;-80
2022/03/03 08:54:25;;;;;;;48.93;23.33;;;1.80;99.90;;;;;;5038168;28;20276;-80
2022/03/03 08:56:51;;;;;;;46.07;24.23;;;1.80;99.90;;;;;;5044375;28;20645;-76
2022/03/03 08:59:16;;;;;;;47.57;23.13;;;1.80;99.90;;;;;;5022689;28;20184;-69
2022/03/03 09:01:42;;;;;;;47.03;22.40;;;1.80;99.90;;;;;;5031178;28;20204;-79
2022/03/03 09:04:07;;;;;;;49.07;23.43;;;1.60;99.90;;;;;;5028104;28;20200;-75
2022/03/03 09:06:33;;;;;;;48.67;24.13;;;1.90;99.90;;;;;;5032078;28;20201;-77
2022/03/03 09:08:59;;;;;;;45.83;23.70;;;1.90;99.90;;;;;;5029294;28;20215;-76
2022/03/03 09:11:25;;;;;;;43.13;23.13;;;2.00;99.90;;;;;;5029859;28;20223;-75
2022/03/03 09:13:50;;;;;;;49.67;24.60;;;1.60;99.90;;;;;;5024842;28;20201;-75
2022/03/03 09:16:17;;;;;;;44.50;22.27;;;1.70;99.90;;;;;;5031474;28;20825;-73
2022/03/03 09:18:46;;;;;;;44.60;21.40;;;1.80;99.90;;;;;;5024201;28;20207;-76
2022/03/03 09:21:12;;;;;;;45.53;22.43;;;1.90;99.90;;;;;;5030172;28;20699;-76
2022/03/03 09:23:38;;;;;;;45.13;22.57;;;1.70;99.90;;;;;;5030076;28;20217;-77
2022/03/03 09:26:04;;;;;;;43.83;22.03;;;1.70;99.90;;;;;;5025950;28;20181;-76
2022/03/03 09:28:29;;;;;;;39.67;20.30;;;1.60;99.90;;;;;;5030199;28;20562;-77
2022/03/03 09:30:56;;;;;;;41.50;19.87;;;1.80;99.90;;;;;;5024903;28;20249;-77
2022/03/03 09:33:23;;;;;;;43.63;22.43;;;1.90;99.90;;;;;;5038322;28;20914;-77
2022/03/03 09:35:49;;;;;;;44.80;21.63;;;2.00;99.90;;;;;;5031649;28;20224;-81
2022/03/03 09:38:14;;;;;;;46.57;22.50;;;2.20;99.90;;;;;;5050691;28;20173;-76
2022/03/03 09:40:41;;;;;;;43.27;22.53;;;2.30;99.90;;;;;;5051617;28;20203;-79
2022/03/03 09:43:07;;;;;;;41.63;21.40;;;2.40;99.90;;;;;;5043073;28;21009;-77
2022/03/03 09:45:34;;;;;;;40.67;20.47;;;2.30;99.90;;;;;;5033002;28;20203;-78
2022/03/03 09:48:03;;;;;;;42.87;22.90;;;2.40;99.90;;;;;;5024932;28;20207;-78
2022/03/03 09:50:30;;;;;;;49.87;25.80;;;2.50;99.90;;;;;;5031993;28;20214;-78
2022/03/03 09:52:55;;;;;;;40.77;20.33;;;2.30;99.90;;;;;;5030921;28;20172;-80
2022/03/03 09:55:22;;;;;;;32.30;18.23;;;2.30;99.90;;;;;;5032972;28;20227;-77
2022/03/03 09:57:48;;;;;;;37.13;18.83;;;2.50;99.90;;;;;;5038714;28;20206;-80
2022/03/03 10:00:15;;;;;;;35.97;17.57;;;2.60;99.90;;;;;;5043915;28;20226;-78
2022/03/03 10:03:17;;;;;;;32.03;16.13;;;2.50;99.90;;;;;;5045471;28;21016;-80
2022/03/03 10:05:51;;;;;;;33.10;16.80;;;2.30;99.90;;;;;;5019156;28;20208;-80
2022/03/03 10:08:19;;;;;;;35.47;17.57;;;2.50;99.90;;;;;;5040064;28;20189;-79
2022/03/03 10:10:48;;;;;;;38.97;19.33;;;2.60;99.90;;;;;;5059364;28;20668;-80
2022/03/03 10:13:16;;;;;;;35.60;18.73;;;2.50;99.90;;;;;;5043761;28;20538;-79
2022/03/03 10:15:44;;;;;;;34.53;18.17;;;2.50;99.90;;;;;;5057266;28;20223;-79
2022/03/03 10:18:12;;;;;;;33.73;17.50;;;2.50;99.90;;;;;;5038405;28;20697;-79
2022/03/03 10:20:59;;;;;;;30.77;17.20;;;2.40;99.90;;;;;;5045082;28;20221;-80
2022/03/03 10:23:31;;;;;;;29.70;15.87;;;2.40;99.90;;;;;;5053986;28;20729;-80
2022/03/03 10:25:59;;;;;;;31.40;15.73;;;2.60;99.90;;;;;;5055476;28;20192;-78
2022/03/03 10:28:33;;;;;;;29.10;15.30;;;2.00;99.90;;;;;;5038090;28;20214;-79
2022/03/03 10:31:02;;;;;;;30.77;15.07;;;1.70;99.90;;;;;;5039848;28;20213;-79
2022/03/03 10:33:30;;;;;;;33.03;15.97;;;2.20;99.90;;;;;;5038486;28;20225;-80
2022/03/03 10:36:13;;;;;;;29.07;14.07;;;2.30;99.90;;;;;;5046384;28;20216;-80
2022/03/03 10:38:51;;;;;;;27.53;14.70;;;2.50;99.90;;;;;;5029398;28;20269;-79
2022/03/03 10:41:37;;;;;;;26.73;15.73;;;2.70;99.90;;;;;;5039447;28;20251;-79
2022/03/03 10:44:09;;;;;;;31.27;16.33;;;2.80;99.90;;;;;;5038956;28;20194;-79
2022/03/03 10:46:36;;;;;;;35.23;15.80;;;3.10;99.90;;;;;;5038442;28;20611;-79
2022/03/03 10:49:23;;;;;;;28.67;13.27;;;3.00;99.90;;;;;;5048033;28;20220;-80
2022/03/03 10:51:49;;;;;;;27.50;13.57;;;2.80;99.90;;;;;;5047054;28;20591;-79
2022/03/03 10:54:14;;;;;;;30.37;15.10;;;2.60;99.90;;;;;;5037395;28;20601;-79
2022/03/03 10:56:46;;;;;;;28.87;13.93;;;2.30;99.90;;;;;;5040788;28;20219;-79
2022/03/03 10:59:20;;;;;;;30.63;14.33;;;2.50;99.90;;;;;;5040345;28;20191;-79
2022/03/03 11:01:46;;;;;;;28.80;14.03;;;2.20;99.90;;;;;;5039949;28;20283;-79
2022/03/03 11:04:18;;;;;;;26.33;12.90;;;2.20;99.90;;;;;;5048461;28;20237;-80
2022/03/03 11:06:45;;;;;;;24.77;12.03;;;2.40;99.90;;;;;;5047037;28;20208;-76
2022/03/03 11:09:10;;;;;;;25.60;12.47;;;2.70;99.90;;;;;;5033316;28;20203;-79
2022/03/03 11:11:37;;;;;;;28.37;14.23;;;3.00;99.90;;;;;;5033028;28;20647;-77
2022/03/03 11:14:03;;;;;;;24.40;12.40;;;3.30;99.90;;;;;;5029883;28;20208;-76
2022/03/03 11:16:28;;;;;;;27.07;12.37;;;3.30;99.90;;;;;;5019086;28;20235;-78
2022/03/03 11:18:54;;;;;;;23.33;12.10;;;3.50;99.90;;;;;;5034759;28;20302;-79
2022/03/03 11:21:20;;;;;;;23.93;12.70;;;3.60;99.90;;;;;;5035967;28;20277;-79
2022/03/03 11:23:46;;;;;;;24.23;13.20;;;3.40;99.90;;;;;;5033712;28;20215;-79
2022/03/03 11:26:34;;;;;;;24.47;13.80;;;3.10;99.90;;;;;;5035792;28;20183;-79
2022/03/03 11:29:10;;;;;;;30.70;15.73;;;2.70;99.90;;;;;;5034325;28;20176;-79
2022/03/03 11:31:37;;;;;;;27.63;14.30;;;2.80;99.90;;;;;;5034148;28;20223;-79
2022/03/03 11:34:30;;;;;;;25.30;12.37;;;3.10;99.90;;;;;;5041211;28;20223;-79
2022/03/03 11:37:01;;;;;;;31.13;14.43;;;3.30;99.90;;;;;;5043790;28;20592;-79
2022/03/03 11:39:38;;;;;;;26.63;13.70;;;3.50;99.90;;;;;;5043086;28;20212;-79
2022/03/03 11:42:17;;;;;;;26.63;13.50;;;3.60;99.90;;;;;;5038151;28;20204;-79
2022/03/03 11:44:42;;;;;;;22.97;12.70;;;3.60;99.90;;;;;;5042191;28;20294;-79
2022/03/03 11:47:23;;;;;;;28.50;13.50;;;3.50;99.90;;;;;;5037169;28;20211;-77
2022/03/03 11:50:05;;;;;;;26.70;13.03;;;3.60;99.90;;;;;;5035787;28;20194;-79
2022/03/03 11:52:31;;;;;;;25.20;13.13;;;3.70;99.90;;;;;;5021874;28;20212;-79
2022/03/03 11:55:18;;;;;;;28.20;12.07;;;3.50;99.90;;;;;;5035523;28;20250;-78
2022/03/03 11:57:44;;;;;;;27.47;10.93;;;3.50;99.90;;;;;;5029903;28;20221;-78
2022/03/03 12:00:14;;;;;;;21.80;11.37;;;3.20;99.90;;;;;;5034488;28;20712;-78
2022/03/03 12:02:58;;;;;;;22.43;10.93;;;3.40;99.90;;;;;;5036214;28;20269;-78
2022/03/03 12:05:31;;;;;;;25.17;11.63;;;3.60;99.90;;;;;;5035117;28;20865;-78
2022/03/03 12:08:03;;;;;;;25.13;13.73;;;3.80;99.90;;;;;;5048789;28;20180;-76
2022/03/03 12:10:30;;;;;;;25.13;12.30;;;3.50;99.90;;;;;;5035114;28;20229;-78
2022/03/03 12:13:41;;;;;;;25.77;12.83;;;3.70;99.90;;;;;;5034727;28;20263;-79
2022/03/03 12:16:19;;;;;;;18.83;10.30;;;3.70;99.90;;;;;;5031764;28;20633;-78
2022/03/03 12:18:58;;;;;;;26.37;13.33;;;3.90;99.90;;;;;;5051818;28;20290;-79
2022/03/03 12:21:45;;;;;;;23.63;13.57;;;4.00;99.90;;;;;;5045165;28;20226;-78
2022/03/03 12:24:14;;;;;;;27.00;11.63;;;3.90;99.90;;;;;;5052246;28;20241;-79
2022/03/03 12:26:52;;;;;;;25.30;11.27;;;3.70;99.90;;;;;;5029879;28;20211;-79
2022/03/03 12:29:34;;;;;;;22.57;10.80;;;3.80;99.90;;;;;;5043483;28;20175;-79
2022/03/03 12:32:25;;;;;;;23.00;10.10;;;3.70;99.90;;;;;;5038104;28;20179;-78
2022/03/03 12:34:58;;;;;;;23.03;10.50;;;3.70;99.90;;;;;;5052393;28;20249;-79
2022/03/03 12:37:23;;;;;;;24.00;12.13;;;3.70;99.90;;;;;;5049048;28;20212;-78
2022/03/03 12:39:51;;;;;;;19.20;10.37;;;3.60;99.90;;;;;;5038822;28;20219;-79
2022/03/03 12:42:22;;;;;;;21.07;10.20;;;3.70;99.90;;;;;;5037370;28;20292;-79
2022/03/03 12:45:02;;;;;;;26.13;11.47;;;3.80;99.90;;;;;;5035212;28;20206;-80